sensor_id;sensor_type;location;lat;lon;timestamp;P1;durP1;ratioP1;P2;durP2;ratioP2
5299;SDS011;70402;42.670;23.258;2023-07-28T00:00:02;3.77;;;1.53;;
5299;SDS011;70402;42.670;23.258;2023-07-28T00:02:29;2.00;;;1.40;;
5299;SDS011;70402;42.670;23.258;2023-07-28T00:04:55;3.17;;;1.60;;
5299;SDS011;70402;42.670;23.258;2023-07-28T00:07:21;3.50;;;1.93;;
5299;SDS011;70402;42.670;23.258;2023-07-28T00:09:47;1.73;;;1.23;;
5299;SDS011;70402;42.670;23.258;2023-07-28T00:12:13;6.93;;;1.40;;
5299;SDS011;70402;42.670;23.258;2023-07-28T00:14:39;1.90;;;1.63;;
5299;SDS011;70402;42.670;23.258;2023-07-28T00:17:05;2.60;;;1.30;;
5299;SDS011;70402;42.670;23.258;2023-07-28T00:19:31;1.47;;;1.33;;
5299;SDS011;70402;42.670;23.258;2023-07-28T00:21:57;1.70;;;1.33;;
5299;SDS011;70402;42.670;23.258;2023-07-28T00:24:22;2.33;;;1.90;;
5299;SDS011;70402;42.670;23.258;2023-07-28T00:26:48;1.80;;;1.40;;
5299;SDS011;70402;42.670;23.258;2023-07-28T00:29:14;2.63;;;1.80;;
5299;SDS011;70402;42.670;23.258;2023-07-28T00:31:40;2.13;;;1.30;;
5299;SDS011;70402;42.670;23.258;2023-07-28T00:34:06;1.60;;;1.40;;
5299;SDS011;70402;42.670;23.258;2023-07-28T00:36:32;2.07;;;1.60;;
5299;SDS011;70402;42.670;23.258;2023-07-28T00:38:58;2.37;;;1.37;;
5299;SDS011;70402;42.670;23.258;2023-07-28T00:41:24;1.47;;;1.30;;
5299;SDS011;70402;42.670;23.258;2023-07-28T00:43:50;2.20;;;1.53;;
5299;SDS011;70402;42.670;23.258;2023-07-28T00:46:16;3.17;;;1.80;;
5299;SDS011;70402;42.670;23.258;2023-07-28T00:48:42;2.13;;;1.50;;
5299;SDS011;70402;42.670;23.258;2023-07-28T00:51:09;3.10;;;1.70;;
5299;SDS011;70402;42.670;23.258;2023-07-28T00:53:35;2.07;;;1.40;;
5299;SDS011;70402;42.670;23.258;2023-07-28T00:56:01;1.63;;;1.20;;
5299;SDS011;70402;42.670;23.258;2023-07-28T00:58:27;1.73;;;1.40;;
5299;SDS011;70402;42.670;23.258;2023-07-28T01:00:55;2.00;;;1.60;;
5299;SDS011;70402;42.670;23.258;2023-07-28T01:03:21;1.70;;;1.20;;
5299;SDS011;70402;42.670;23.258;2023-07-28T01:08:40;1.40;;;1.13;;
5299;SDS011;70402;42.670;23.258;2023-07-28T01:11:13;1.80;;;1.33;;
5299;SDS011;70402;42.670;23.258;2023-07-28T01:13:39;2.57;;;1.90;;
5299;SDS011;70402;42.670;23.258;2023-07-28T01:16:05;1.53;;;1.20;;
5299;SDS011;70402;42.670;23.258;2023-07-28T01:18:32;2.40;;;1.50;;
5299;SDS011;70402;42.670;23.258;2023-07-28T01:20:58;1.67;;;1.43;;
5299;SDS011;70402;42.670;23.258;2023-07-28T01:26:11;1.80;;;1.40;;
5299;SDS011;70402;42.670;23.258;2023-07-28T01:28:38;2.80;;;1.73;;
5299;SDS011;70402;42.670;23.258;2023-07-28T01:31:07;1.90;;;1.50;;
5299;SDS011;70402;42.670;23.258;2023-07-28T01:33:33;3.60;;;1.90;;
5299;SDS011;70402;42.670;23.258;2023-07-28T01:35:59;2.37;;;1.70;;
5299;SDS011;70402;42.670;23.258;2023-07-28T01:38:26;2.70;;;1.73;;
5299;SDS011;70402;42.670;23.258;2023-07-28T01:40:53;2.30;;;1.53;;
5299;SDS011;70402;42.670;23.258;2023-07-28T01:43:19;4.37;;;2.10;;
5299;SDS011;70402;42.670;23.258;2023-07-28T01:45:45;3.20;;;2.67;;
5299;SDS011;70402;42.670;23.258;2023-07-28T01:48:10;3.07;;;2.70;;
5299;SDS011;70402;42.670;23.258;2023-07-28T01:50:37;2.57;;;2.23;;
5299;SDS011;70402;42.670;23.258;2023-07-28T01:53:06;2.30;;;2.07;;
5299;SDS011;70402;42.670;23.258;2023-07-28T01:55:32;3.97;;;2.47;;
5299;SDS011;70402;42.670;23.258;2023-07-28T01:57:59;2.40;;;1.90;;
5299;SDS011;70402;42.670;23.258;2023-07-28T02:00:26;3.43;;;2.00;;
5299;SDS011;70402;42.670;23.258;2023-07-28T02:02:52;2.20;;;2.00;;
5299;SDS011;70402;42.670;23.258;2023-07-28T02:05:18;2.47;;;2.10;;
5299;SDS011;70402;42.670;23.258;2023-07-28T02:07:44;3.23;;;2.23;;
5299;SDS011;70402;42.670;23.258;2023-07-28T02:10:10;2.60;;;2.37;;
5299;SDS011;70402;42.670;23.258;2023-07-28T02:12:37;2.30;;;2.10;;
5299;SDS011;70402;42.670;23.258;2023-07-28T02:15:03;2.73;;;2.03;;
5299;SDS011;70402;42.670;23.258;2023-07-28T02:17:32;2.47;;;2.10;;
5299;SDS011;70402;42.670;23.258;2023-07-28T02:19:58;2.50;;;2.20;;
5299;SDS011;70402;42.670;23.258;2023-07-28T02:22:24;2.60;;;1.97;;
5299;SDS011;70402;42.670;23.258;2023-07-28T02:24:50;2.63;;;1.80;;
5299;SDS011;70402;42.670;23.258;2023-07-28T02:27:16;2.50;;;1.80;;
5299;SDS011;70402;42.670;23.258;2023-07-28T02:29:42;2.90;;;2.47;;
5299;SDS011;70402;42.670;23.258;2023-07-28T02:32:08;4.47;;;2.40;;
5299;SDS011;70402;42.670;23.258;2023-07-28T02:34:34;4.00;;;2.50;;
5299;SDS011;70402;42.670;23.258;2023-07-28T02:37:00;2.30;;;2.00;;
5299;SDS011;70402;42.670;23.258;2023-07-28T02:39:26;2.30;;;1.93;;
5299;SDS011;70402;42.670;23.258;2023-07-28T02:41:52;2.50;;;2.10;;
5299;SDS011;70402;42.670;23.258;2023-07-28T02:44:17;1.97;;;1.70;;
5299;SDS011;70402;42.670;23.258;2023-07-28T02:46:43;2.10;;;1.70;;
5299;SDS011;70402;42.670;23.258;2023-07-28T02:49:09;3.80;;;2.30;;
5299;SDS011;70402;42.670;23.258;2023-07-28T02:51:35;2.30;;;1.90;;
5299;SDS011;70402;42.670;23.258;2023-07-28T02:54:01;2.70;;;2.20;;
5299;SDS011;70402;42.670;23.258;2023-07-28T02:56:28;2.00;;;1.80;;
5299;SDS011;70402;42.670;23.258;2023-07-28T02:58:59;2.50;;;2.03;;
5299;SDS011;70402;42.670;23.258;2023-07-28T03:01:26;1.80;;;1.53;;
5299;SDS011;70402;42.670;23.258;2023-07-28T03:03:53;2.97;;;1.90;;
5299;SDS011;70402;42.670;23.258;2023-07-28T03:06:19;2.07;;;1.87;;
5299;SDS011;70402;42.670;23.258;2023-07-28T03:08:44;2.90;;;1.70;;
5299;SDS011;70402;42.670;23.258;2023-07-28T03:11:10;1.90;;;1.70;;
5299;SDS011;70402;42.670;23.258;2023-07-28T03:13:36;3.30;;;2.00;;
5299;SDS011;70402;42.670;23.258;2023-07-28T03:16:02;3.80;;;2.10;;
5299;SDS011;70402;42.670;23.258;2023-07-28T03:18:28;2.53;;;1.90;;
5299;SDS011;70402;42.670;23.258;2023-07-28T03:20:54;8.70;;;2.13;;
5299;SDS011;70402;42.670;23.258;2023-07-28T03:23:20;2.70;;;2.00;;
5299;SDS011;70402;42.670;23.258;2023-07-28T03:25:46;3.40;;;1.90;;
5299;SDS011;70402;42.670;23.258;2023-07-28T03:28:11;2.73;;;1.50;;
5299;SDS011;70402;42.670;23.258;2023-07-28T03:30:37;3.63;;;1.90;;
5299;SDS011;70402;42.670;23.258;2023-07-28T03:33:03;3.40;;;2.60;;
5299;SDS011;70402;42.670;23.258;2023-07-28T03:35:29;2.67;;;2.10;;
5299;SDS011;70402;42.670;23.258;2023-07-28T03:37:55;2.23;;;1.67;;
5299;SDS011;70402;42.670;23.258;2023-07-28T03:40:21;4.40;;;1.77;;
5299;SDS011;70402;42.670;23.258;2023-07-28T03:42:46;3.17;;;1.90;;
5299;SDS011;70402;42.670;23.258;2023-07-28T03:45:12;2.20;;;1.87;;
5299;SDS011;70402;42.670;23.258;2023-07-28T03:47:38;2.57;;;1.67;;
5299;SDS011;70402;42.670;23.258;2023-07-28T03:50:05;2.27;;;2.00;;
5299;SDS011;70402;42.670;23.258;2023-07-28T03:52:31;3.07;;;1.90;;
5299;SDS011;70402;42.670;23.258;2023-07-28T03:54:57;3.20;;;1.97;;
5299;SDS011;70402;42.670;23.258;2023-07-28T03:57:23;2.07;;;1.50;;
5299;SDS011;70402;42.670;23.258;2023-07-28T03:59:48;2.90;;;2.00;;
5299;SDS011;70402;42.670;23.258;2023-07-28T04:02:14;2.60;;;1.73;;
5299;SDS011;70402;42.670;23.258;2023-07-28T04:04:40;3.33;;;2.23;;
5299;SDS011;70402;42.670;23.258;2023-07-28T04:07:06;2.70;;;1.97;;
5299;SDS011;70402;42.670;23.258;2023-07-28T04:09:32;2.30;;;1.90;;
5299;SDS011;70402;42.670;23.258;2023-07-28T04:11:58;3.70;;;2.60;;
5299;SDS011;70402;42.670;23.258;2023-07-28T04:14:24;2.63;;;1.87;;
5299;SDS011;70402;42.670;23.258;2023-07-28T04:16:50;3.20;;;2.37;;
5299;SDS011;70402;42.670;23.258;2023-07-28T04:19:15;4.20;;;1.73;;
5299;SDS011;70402;42.670;23.258;2023-07-28T04:21:41;2.80;;;2.20;;
5299;SDS011;70402;42.670;23.258;2023-07-28T04:24:08;2.63;;;2.00;;
5299;SDS011;70402;42.670;23.258;2023-07-28T04:26:34;3.07;;;1.77;;
5299;SDS011;70402;42.670;23.258;2023-07-28T04:29:00;2.70;;;2.17;;
5299;SDS011;70402;42.670;23.258;2023-07-28T04:31:26;2.60;;;2.10;;
5299;SDS011;70402;42.670;23.258;2023-07-28T04:33:52;4.43;;;2.40;;
5299;SDS011;70402;42.670;23.258;2023-07-28T04:36:18;2.13;;;1.90;;
5299;SDS011;70402;42.670;23.258;2023-07-28T04:38:44;3.90;;;2.20;;
5299;SDS011;70402;42.670;23.258;2023-07-28T04:41:10;2.23;;;1.87;;
5299;SDS011;70402;42.670;23.258;2023-07-28T04:43:35;4.87;;;2.80;;
5299;SDS011;70402;42.670;23.258;2023-07-28T04:46:01;4.00;;;2.57;;
5299;SDS011;70402;42.670;23.258;2023-07-28T04:48:27;4.13;;;2.70;;
5299;SDS011;70402;42.670;23.258;2023-07-28T04:50:53;3.10;;;2.33;;
5299;SDS011;70402;42.670;23.258;2023-07-28T04:53:19;5.10;;;3.03;;
5299;SDS011;70402;42.670;23.258;2023-07-28T04:55:45;6.63;;;3.07;;
5299;SDS011;70402;42.670;23.258;2023-07-28T04:58:11;4.57;;;2.33;;
5299;SDS011;70402;42.670;23.258;2023-07-28T05:00:37;4.87;;;2.90;;
5299;SDS011;70402;42.670;23.258;2023-07-28T05:03:03;4.67;;;2.07;;
5299;SDS011;70402;42.670;23.258;2023-07-28T05:05:29;4.03;;;2.03;;
5299;SDS011;70402;42.670;23.258;2023-07-28T05:07:55;3.37;;;2.60;;
5299;SDS011;70402;42.670;23.258;2023-07-28T05:10:21;3.13;;;2.00;;
5299;SDS011;70402;42.670;23.258;2023-07-28T05:12:47;3.60;;;2.73;;
5299;SDS011;70402;42.670;23.258;2023-07-28T05:15:14;6.43;;;1.73;;
5299;SDS011;70402;42.670;23.258;2023-07-28T05:17:40;3.60;;;2.80;;
5299;SDS011;70402;42.670;23.258;2023-07-28T05:20:06;4.47;;;2.30;;
5299;SDS011;70402;42.670;23.258;2023-07-28T05:22:32;8.47;;;2.73;;
5299;SDS011;70402;42.670;23.258;2023-07-28T05:24:58;4.93;;;2.60;;
5299;SDS011;70402;42.670;23.258;2023-07-28T05:27:24;3.40;;;2.60;;
5299;SDS011;70402;42.670;23.258;2023-07-28T05:29:50;3.77;;;2.60;;
5299;SDS011;70402;42.670;23.258;2023-07-28T05:32:16;6.47;;;2.60;;
5299;SDS011;70402;42.670;23.258;2023-07-28T05:34:43;4.97;;;2.97;;
5299;SDS011;70402;42.670;23.258;2023-07-28T05:37:09;8.40;;;2.63;;
5299;SDS011;70402;42.670;23.258;2023-07-28T05:39:35;4.60;;;2.67;;
5299;SDS011;70402;42.670;23.258;2023-07-28T05:42:01;3.80;;;2.30;;
5299;SDS011;70402;42.670;23.258;2023-07-28T05:44:28;3.07;;;2.50;;
5299;SDS011;70402;42.670;23.258;2023-07-28T05:46:54;3.47;;;2.43;;
5299;SDS011;70402;42.670;23.258;2023-07-28T05:49:20;3.60;;;2.40;;
5299;SDS011;70402;42.670;23.258;2023-07-28T05:51:46;3.50;;;2.10;;
5299;SDS011;70402;42.670;23.258;2023-07-28T05:54:12;2.70;;;2.43;;
5299;SDS011;70402;42.670;23.258;2023-07-28T05:56:41;2.87;;;2.00;;
5299;SDS011;70402;42.670;23.258;2023-07-28T05:59:07;4.00;;;2.80;;
5299;SDS011;70402;42.670;23.258;2023-07-28T06:01:34;4.87;;;2.43;;
5299;SDS011;70402;42.670;23.258;2023-07-28T06:04:00;3.67;;;2.33;;
5299;SDS011;70402;42.670;23.258;2023-07-28T06:06:26;4.30;;;3.23;;
5299;SDS011;70402;42.670;23.258;2023-07-28T06:08:52;4.93;;;2.63;;
5299;SDS011;70402;42.670;23.258;2023-07-28T06:11:18;4.43;;;2.90;;
5299;SDS011;70402;42.670;23.258;2023-07-28T06:13:45;5.13;;;2.80;;
5299;SDS011;70402;42.670;23.258;2023-07-28T06:16:12;6.70;;;3.00;;
5299;SDS011;70402;42.670;23.258;2023-07-28T06:18:38;2.97;;;2.63;;
5299;SDS011;70402;42.670;23.258;2023-07-28T06:21:04;5.93;;;3.93;;
5299;SDS011;70402;42.670;23.258;2023-07-28T06:23:30;6.27;;;2.93;;
5299;SDS011;70402;42.670;23.258;2023-07-28T06:25:56;5.47;;;2.57;;
5299;SDS011;70402;42.670;23.258;2023-07-28T06:28:22;7.00;;;2.97;;
5299;SDS011;70402;42.670;23.258;2023-07-28T06:30:53;5.67;;;2.50;;
5299;SDS011;70402;42.670;23.258;2023-07-28T06:33:22;6.47;;;2.70;;
5299;SDS011;70402;42.670;23.258;2023-07-28T06:35:49;7.47;;;2.50;;
5299;SDS011;70402;42.670;23.258;2023-07-28T06:38:15;2.70;;;2.07;;
5299;SDS011;70402;42.670;23.258;2023-07-28T06:40:41;4.67;;;2.70;;
5299;SDS011;70402;42.670;23.258;2023-07-28T06:43:06;3.93;;;2.60;;
5299;SDS011;70402;42.670;23.258;2023-07-28T06:45:33;6.17;;;2.90;;
5299;SDS011;70402;42.670;23.258;2023-07-28T06:47:59;4.13;;;2.70;;
5299;SDS011;70402;42.670;23.258;2023-07-28T06:50:25;3.83;;;2.63;;
5299;SDS011;70402;42.670;23.258;2023-07-28T06:52:50;4.60;;;2.70;;
5299;SDS011;70402;42.670;23.258;2023-07-28T06:55:17;5.40;;;2.60;;
5299;SDS011;70402;42.670;23.258;2023-07-28T06:57:44;3.17;;;2.60;;
5299;SDS011;70402;42.670;23.258;2023-07-28T07:00:10;10.03;;;4.77;;
5299;SDS011;70402;42.670;23.258;2023-07-28T07:02:37;5.33;;;2.30;;
5299;SDS011;70402;42.670;23.258;2023-07-28T07:05:03;6.67;;;2.90;;
5299;SDS011;70402;42.670;23.258;2023-07-28T07:07:29;4.30;;;2.63;;
5299;SDS011;70402;42.670;23.258;2023-07-28T07:09:55;5.07;;;2.37;;
5299;SDS011;70402;42.670;23.258;2023-07-28T07:12:21;3.70;;;2.83;;
5299;SDS011;70402;42.670;23.258;2023-07-28T07:14:47;4.67;;;2.50;;
5299;SDS011;70402;42.670;23.258;2023-07-28T07:17:13;4.17;;;2.60;;
5299;SDS011;70402;42.670;23.258;2023-07-28T07:19:40;6.63;;;4.67;;
5299;SDS011;70402;42.670;23.258;2023-07-28T07:22:05;2.90;;;2.50;;
5299;SDS011;70402;42.670;23.258;2023-07-28T07:24:32;3.83;;;2.50;;
5299;SDS011;70402;42.670;23.258;2023-07-28T07:26:58;7.17;;;2.80;;
5299;SDS011;70402;42.670;23.258;2023-07-28T07:29:24;4.43;;;2.70;;
5299;SDS011;70402;42.670;23.258;2023-07-28T07:31:50;7.07;;;3.23;;
5299;SDS011;70402;42.670;23.258;2023-07-28T07:34:20;2.90;;;2.30;;
5299;SDS011;70402;42.670;23.258;2023-07-28T07:36:47;2.80;;;2.13;;
5299;SDS011;70402;42.670;23.258;2023-07-28T07:39:13;5.53;;;2.60;;
5299;SDS011;70402;42.670;23.258;2023-07-28T07:41:39;2.80;;;2.27;;
5299;SDS011;70402;42.670;23.258;2023-07-28T07:44:05;4.30;;;2.10;;
5299;SDS011;70402;42.670;23.258;2023-07-28T07:46:31;3.10;;;2.50;;
5299;SDS011;70402;42.670;23.258;2023-07-28T07:48:57;3.90;;;2.27;;
5299;SDS011;70402;42.670;23.258;2023-07-28T07:51:23;7.33;;;2.40;;
5299;SDS011;70402;42.670;23.258;2023-07-28T07:53:49;3.60;;;2.57;;
5299;SDS011;70402;42.670;23.258;2023-07-28T07:56:16;3.53;;;2.23;;
5299;SDS011;70402;42.670;23.258;2023-07-28T07:58:42;8.73;;;2.93;;
5299;SDS011;70402;42.670;23.258;2023-07-28T08:01:08;4.00;;;2.57;;
5299;SDS011;70402;42.670;23.258;2023-07-28T08:03:35;2.90;;;2.20;;
5299;SDS011;70402;42.670;23.258;2023-07-28T08:06:03;4.20;;;2.27;;
5299;SDS011;70402;42.670;23.258;2023-07-28T08:08:29;6.10;;;2.47;;
5299;SDS011;70402;42.670;23.258;2023-07-28T08:10:55;3.23;;;2.10;;
5299;SDS011;70402;42.670;23.258;2023-07-28T08:13:22;2.97;;;2.43;;
5299;SDS011;70402;42.670;23.258;2023-07-28T08:15:48;5.67;;;2.60;;
5299;SDS011;70402;42.670;23.258;2023-07-28T08:18:15;3.30;;;2.30;;
5299;SDS011;70402;42.670;23.258;2023-07-28T08:20:41;2.43;;;1.90;;
5299;SDS011;70402;42.670;23.258;2023-07-28T08:23:08;5.50;;;2.60;;
5299;SDS011;70402;42.670;23.258;2023-07-28T08:25:34;4.37;;;2.90;;
5299;SDS011;70402;42.670;23.258;2023-07-28T08:28:00;2.83;;;2.10;;
5299;SDS011;70402;42.670;23.258;2023-07-28T08:30:27;6.30;;;2.37;;
5299;SDS011;70402;42.670;23.258;2023-07-28T08:32:53;3.93;;;2.27;;
5299;SDS011;70402;42.670;23.258;2023-07-28T08:35:20;3.87;;;2.30;;
5299;SDS011;70402;42.670;23.258;2023-07-28T08:37:46;2.13;;;1.87;;
5299;SDS011;70402;42.670;23.258;2023-07-28T08:40:13;3.70;;;2.43;;
5299;SDS011;70402;42.670;23.258;2023-07-28T08:42:39;2.97;;;2.37;;
5299;SDS011;70402;42.670;23.258;2023-07-28T08:45:06;4.50;;;2.40;;
5299;SDS011;70402;42.670;23.258;2023-07-28T08:47:36;2.70;;;1.80;;
5299;SDS011;70402;42.670;23.258;2023-07-28T08:50:03;3.90;;;2.30;;
5299;SDS011;70402;42.670;23.258;2023-07-28T08:52:31;4.47;;;2.00;;
5299;SDS011;70402;42.670;23.258;2023-07-28T08:54:57;7.00;;;2.00;;
5299;SDS011;70402;42.670;23.258;2023-07-28T08:57:23;3.27;;;2.17;;
5299;SDS011;70402;42.670;23.258;2023-07-28T08:59:50;3.93;;;2.00;;
5299;SDS011;70402;42.670;23.258;2023-07-28T09:02:17;2.57;;;2.03;;
5299;SDS011;70402;42.670;23.258;2023-07-28T09:04:44;2.90;;;2.10;;
5299;SDS011;70402;42.670;23.258;2023-07-28T09:07:11;6.20;;;2.13;;
5299;SDS011;70402;42.670;23.258;2023-07-28T09:09:38;2.13;;;1.53;;
5299;SDS011;70402;42.670;23.258;2023-07-28T09:12:06;3.53;;;2.60;;
5299;SDS011;70402;42.670;23.258;2023-07-28T09:14:36;3.00;;;1.80;;
5299;SDS011;70402;42.670;23.258;2023-07-28T09:17:07;3.20;;;1.77;;
5299;SDS011;70402;42.670;23.258;2023-07-28T09:19:51;3.87;;;2.10;;
5299;SDS011;70402;42.670;23.258;2023-07-28T09:22:18;3.07;;;2.03;;
5299;SDS011;70402;42.670;23.258;2023-07-28T09:24:45;5.13;;;2.20;;
5299;SDS011;70402;42.670;23.258;2023-07-28T09:27:22;2.97;;;1.80;;
5299;SDS011;70402;42.670;23.258;2023-07-28T09:29:50;3.17;;;1.83;;
5299;SDS011;70402;42.670;23.258;2023-07-28T09:32:26;4.47;;;2.17;;
5299;SDS011;70402;42.670;23.258;2023-07-28T09:35:10;2.83;;;1.80;;
5299;SDS011;70402;42.670;23.258;2023-07-28T09:37:38;4.20;;;1.57;;
5299;SDS011;70402;42.670;23.258;2023-07-28T09:40:09;2.10;;;1.70;;
5299;SDS011;70402;42.670;23.258;2023-07-28T09:42:37;1.87;;;1.60;;
5299;SDS011;70402;42.670;23.258;2023-07-28T09:45:07;5.13;;;2.00;;
5299;SDS011;70402;42.670;23.258;2023-07-28T09:47:34;2.50;;;1.67;;
5299;SDS011;70402;42.670;23.258;2023-07-28T09:50:05;3.70;;;1.70;;
5299;SDS011;70402;42.670;23.258;2023-07-28T09:52:37;2.13;;;1.53;;
5299;SDS011;70402;42.670;23.258;2023-07-28T09:55:07;2.50;;;1.83;;
5299;SDS011;70402;42.670;23.258;2023-07-28T09:57:38;2.50;;;2.00;;
5299;SDS011;70402;42.670;23.258;2023-07-28T10:00:10;6.93;;;2.30;;
5299;SDS011;70402;42.670;23.258;2023-07-28T10:02:38;5.27;;;1.90;;
5299;SDS011;70402;42.670;23.258;2023-07-28T10:05:06;2.93;;;1.60;;
5299;SDS011;70402;42.670;23.258;2023-07-28T10:07:34;4.67;;;2.20;;
5299;SDS011;70402;42.670;23.258;2023-07-28T10:10:02;3.17;;;2.20;;
5299;SDS011;70402;42.670;23.258;2023-07-28T10:12:39;2.07;;;1.40;;
5299;SDS011;70402;42.670;23.258;2023-07-28T10:15:07;2.73;;;1.90;;
5299;SDS011;70402;42.670;23.258;2023-07-28T10:17:47;2.63;;;1.67;;
5299;SDS011;70402;42.670;23.258;2023-07-28T10:20:27;3.00;;;1.70;;
5299;SDS011;70402;42.670;23.258;2023-07-28T10:22:53;3.23;;;2.33;;
5299;SDS011;70402;42.670;23.258;2023-07-28T10:25:25;1.70;;;1.60;;
5299;SDS011;70402;42.670;23.258;2023-07-28T10:27:51;2.80;;;1.73;;
5299;SDS011;70402;42.670;23.258;2023-07-28T10:30:17;2.17;;;1.60;;
5299;SDS011;70402;42.670;23.258;2023-07-28T10:32:45;2.37;;;1.90;;
5299;SDS011;70402;42.670;23.258;2023-07-28T10:35:23;1.80;;;1.60;;
5299;SDS011;70402;42.670;23.258;2023-07-28T10:37:53;2.60;;;2.10;;
5299;SDS011;70402;42.670;23.258;2023-07-28T10:40:22;3.83;;;1.70;;
5299;SDS011;70402;42.670;23.258;2023-07-28T10:43:01;3.07;;;1.67;;
5299;SDS011;70402;42.670;23.258;2023-07-28T10:45:29;2.30;;;1.63;;
5299;SDS011;70402;42.670;23.258;2023-07-28T10:47:57;2.00;;;1.50;;
5299;SDS011;70402;42.670;23.258;2023-07-28T10:50:31;2.40;;;1.50;;
5299;SDS011;70402;42.670;23.258;2023-07-28T10:52:57;1.93;;;1.80;;
5299;SDS011;70402;42.670;23.258;2023-07-28T10:55:24;1.70;;;1.40;;
5299;SDS011;70402;42.670;23.258;2023-07-28T10:57:53;2.50;;;1.30;;
5299;SDS011;70402;42.670;23.258;2023-07-28T11:00:20;1.80;;;1.17;;
5299;SDS011;70402;42.670;23.258;2023-07-28T11:02:51;1.97;;;1.60;;
5299;SDS011;70402;42.670;23.258;2023-07-28T11:05:25;2.07;;;1.40;;
5299;SDS011;70402;42.670;23.258;2023-07-28T11:07:56;6.07;;;1.53;;
5299;SDS011;70402;42.670;23.258;2023-07-28T11:10:24;2.30;;;1.60;;
5299;SDS011;70402;42.670;23.258;2023-07-28T11:12:51;1.97;;;1.57;;
5299;SDS011;70402;42.670;23.258;2023-07-28T11:15:18;4.13;;;1.50;;
5299;SDS011;70402;42.670;23.258;2023-07-28T11:17:46;2.57;;;1.70;;
5299;SDS011;70402;42.670;23.258;2023-07-28T11:20:17;1.30;;;1.10;;
5299;SDS011;70402;42.670;23.258;2023-07-28T11:22:51;1.90;;;1.27;;
5299;SDS011;70402;42.670;23.258;2023-07-28T11:25:22;1.53;;;1.10;;
5299;SDS011;70402;42.670;23.258;2023-07-28T11:27:50;4.50;;;1.33;;
5299;SDS011;70402;42.670;23.258;2023-07-28T11:30:17;1.63;;;1.30;;
5299;SDS011;70402;42.670;23.258;2023-07-28T11:32:44;1.40;;;1.30;;
5299;SDS011;70402;42.670;23.258;2023-07-28T11:35:13;2.07;;;1.50;;
5299;SDS011;70402;42.670;23.258;2023-07-28T11:37:41;2.33;;;1.30;;
5299;SDS011;70402;42.670;23.258;2023-07-28T11:40:08;1.83;;;1.57;;
5299;SDS011;70402;42.670;23.258;2023-07-28T11:42:39;1.77;;;1.40;;
5299;SDS011;70402;42.670;23.258;2023-07-28T11:45:08;2.00;;;1.40;;
5299;SDS011;70402;42.670;23.258;2023-07-28T11:47:35;3.97;;;1.47;;
5299;SDS011;70402;42.670;23.258;2023-07-28T11:50:01;2.57;;;1.40;;
5299;SDS011;70402;42.670;23.258;2023-07-28T11:52:31;1.20;;;1.00;;
5299;SDS011;70402;42.670;23.258;2023-07-28T11:54:58;1.83;;;1.53;;
5299;SDS011;70402;42.670;23.258;2023-07-28T11:57:26;2.00;;;1.33;;
5299;SDS011;70402;42.670;23.258;2023-07-28T11:59:53;1.50;;;1.10;;
5299;SDS011;70402;42.670;23.258;2023-07-28T12:02:29;2.33;;;1.43;;
5299;SDS011;70402;42.670;23.258;2023-07-28T12:04:58;1.60;;;1.50;;
5299;SDS011;70402;42.670;23.258;2023-07-28T12:07:31;1.57;;;1.40;;
5299;SDS011;70402;42.670;23.258;2023-07-28T12:10:01;1.30;;;1.20;;
5299;SDS011;70402;42.670;23.258;2023-07-28T12:12:31;1.70;;;1.57;;
5299;SDS011;70402;42.670;23.258;2023-07-28T12:15:17;2.43;;;1.90;;
5299;SDS011;70402;42.670;23.258;2023-07-28T12:18:01;2.50;;;1.40;;
5299;SDS011;70402;42.670;23.258;2023-07-28T12:20:39;2.80;;;1.80;;
5299;SDS011;70402;42.670;23.258;2023-07-28T12:23:07;3.07;;;1.20;;
5299;SDS011;70402;42.670;23.258;2023-07-28T12:25:34;1.67;;;1.37;;
5299;SDS011;70402;42.670;23.258;2023-07-28T12:28:01;1.70;;;1.37;;
5299;SDS011;70402;42.670;23.258;2023-07-28T12:30:28;2.63;;;1.73;;
5299;SDS011;70402;42.670;23.258;2023-07-28T12:32:54;3.40;;;1.80;;
5299;SDS011;70402;42.670;23.258;2023-07-28T12:35:20;2.13;;;1.53;;
5299;SDS011;70402;42.670;23.258;2023-07-28T12:37:49;1.33;;;1.23;;
5299;SDS011;70402;42.670;23.258;2023-07-28T12:40:16;3.53;;;1.63;;
5299;SDS011;70402;42.670;23.258;2023-07-28T12:42:44;1.97;;;1.60;;
5299;SDS011;70402;42.670;23.258;2023-07-28T12:45:12;1.80;;;1.43;;
5299;SDS011;70402;42.670;23.258;2023-07-28T12:47:38;2.20;;;1.73;;
5299;SDS011;70402;42.670;23.258;2023-07-28T12:50:06;1.70;;;1.50;;
5299;SDS011;70402;42.670;23.258;2023-07-28T12:52:32;2.23;;;1.40;;
5299;SDS011;70402;42.670;23.258;2023-07-28T12:54:58;5.00;;;1.63;;
5299;SDS011;70402;42.670;23.258;2023-07-28T12:57:24;5.67;;;3.13;;
5299;SDS011;70402;42.670;23.258;2023-07-28T12:59:50;2.50;;;1.67;;
5299;SDS011;70402;42.670;23.258;2023-07-28T13:02:17;2.83;;;1.60;;
5299;SDS011;70402;42.670;23.258;2023-07-28T13:04:43;4.73;;;2.40;;
5299;SDS011;70402;42.670;23.258;2023-07-28T13:07:09;2.63;;;1.53;;
5299;SDS011;70402;42.670;23.258;2023-07-28T13:09:35;3.00;;;2.00;;
5299;SDS011;70402;42.670;23.258;2023-07-28T13:12:01;2.67;;;1.70;;
5299;SDS011;70402;42.670;23.258;2023-07-28T13:14:27;2.50;;;1.57;;
5299;SDS011;70402;42.670;23.258;2023-07-28T13:16:53;2.07;;;1.10;;
5299;SDS011;70402;42.670;23.258;2023-07-28T13:19:19;2.13;;;1.60;;
5299;SDS011;70402;42.670;23.258;2023-07-28T13:21:45;1.50;;;1.33;;
5299;SDS011;70402;42.670;23.258;2023-07-28T13:24:11;1.33;;;1.20;;
5299;SDS011;70402;42.670;23.258;2023-07-28T13:26:37;2.27;;;1.70;;
5299;SDS011;70402;42.670;23.258;2023-07-28T13:29:03;1.43;;;1.30;;
5299;SDS011;70402;42.670;23.258;2023-07-28T13:31:32;1.93;;;1.50;;
5299;SDS011;70402;42.670;23.258;2023-07-28T13:33:59;1.40;;;1.30;;
5299;SDS011;70402;42.670;23.258;2023-07-28T13:36:25;3.50;;;1.33;;
5299;SDS011;70402;42.670;23.258;2023-07-28T13:38:51;1.20;;;1.10;;
5299;SDS011;70402;42.670;23.258;2023-07-28T13:41:17;1.73;;;1.30;;
5299;SDS011;70402;42.670;23.258;2023-07-28T13:43:43;1.93;;;1.47;;
5299;SDS011;70402;42.670;23.258;2023-07-28T13:46:09;2.03;;;1.37;;
5299;SDS011;70402;42.670;23.258;2023-07-28T13:48:36;1.60;;;1.50;;
5299;SDS011;70402;42.670;23.258;2023-07-28T13:51:04;4.00;;;1.40;;
5299;SDS011;70402;42.670;23.258;2023-07-28T13:53:30;2.23;;;1.40;;
5299;SDS011;70402;42.670;23.258;2023-07-28T13:55:56;1.43;;;1.17;;
5299;SDS011;70402;42.670;23.258;2023-07-28T13:58:22;1.47;;;1.30;;
5299;SDS011;70402;42.670;23.258;2023-07-28T14:00:49;2.17;;;1.70;;
5299;SDS011;70402;42.670;23.258;2023-07-28T14:03:15;1.40;;;1.30;;
5299;SDS011;70402;42.670;23.258;2023-07-28T14:05:41;1.60;;;1.50;;
5299;SDS011;70402;42.670;23.258;2023-07-28T14:08:08;1.50;;;1.33;;
5299;SDS011;70402;42.670;23.258;2023-07-28T14:10:33;1.90;;;1.33;;
5299;SDS011;70402;42.670;23.258;2023-07-28T14:13:01;1.20;;;1.10;;
5299;SDS011;70402;42.670;23.258;2023-07-28T14:15:28;4.70;;;1.93;;
5299;SDS011;70402;42.670;23.258;2023-07-28T14:17:54;2.20;;;1.83;;
5299;SDS011;70402;42.670;23.258;2023-07-28T14:20:20;2.10;;;1.67;;
5299;SDS011;70402;42.670;23.258;2023-07-28T14:22:46;1.33;;;1.23;;
5299;SDS011;70402;42.670;23.258;2023-07-28T14:25:12;2.90;;;1.20;;
5299;SDS011;70402;42.670;23.258;2023-07-28T14:27:39;1.30;;;1.20;;
5299;SDS011;70402;42.670;23.258;2023-07-28T14:30:05;1.83;;;1.40;;
5299;SDS011;70402;42.670;23.258;2023-07-28T14:32:32;1.40;;;1.20;;
5299;SDS011;70402;42.670;23.258;2023-07-28T14:34:58;1.50;;;1.40;;
5299;SDS011;70402;42.670;23.258;2023-07-28T14:37:25;2.17;;;1.57;;
5299;SDS011;70402;42.670;23.258;2023-07-28T14:39:51;1.23;;;1.10;;
5299;SDS011;70402;42.670;23.258;2023-07-28T14:42:18;1.57;;;1.17;;
5299;SDS011;70402;42.670;23.258;2023-07-28T14:44:45;1.53;;;1.37;;
5299;SDS011;70402;42.670;23.258;2023-07-28T14:47:11;2.10;;;1.40;;
5299;SDS011;70402;42.670;23.258;2023-07-28T14:49:37;1.50;;;1.30;;
5299;SDS011;70402;42.670;23.258;2023-07-28T14:52:03;1.67;;;1.33;;